createdAt,value
2022-10-23T00:01:46.064Z,100649.13
2022-10-23T00:04:17.992Z,100651.44
2022-10-23T00:06:46.208Z,100647.09
2022-10-23T00:09:16.861Z,100634.50
2022-10-23T00:11:47.614Z,100636.63
2022-10-23T00:14:16.871Z,100638.75
2022-10-23T00:16:44.624Z,100629.25
2022-10-23T00:19:12.386Z,100627.72
2022-10-23T00:21:42.003Z,100631.06
2022-10-23T00:26:42.969Z,100652.00
2022-10-23T00:29:11.713Z,100650.88
2022-10-23T00:31:40.155Z,100647.16
2022-10-23T00:34:09.215Z,100647.25
2022-10-23T00:36:37.022Z,100640.91
2022-10-23T00:39:07.237Z,100649.53
2022-10-23T00:41:35.419Z,100645.50
2022-10-23T00:44:07.820Z,100646.19
2022-10-23T00:46:36.220Z,100637.25
2022-10-23T00:49:05.792Z,100641.19
2022-10-23T00:51:40.876Z,100636.16
2022-10-23T00:54:23.506Z,100633.38
2022-10-23T00:56:54.604Z,100616.63
2022-10-23T00:59:22.590Z,100620.25
2022-10-23T01:01:50.478Z,100621.91
2022-10-23T01:04:18.646Z,100629.19
2022-10-23T01:06:55.963Z,100617.03
2022-10-23T01:09:32.698Z,100624.34
2022-10-23T01:12:11.552Z,100614.41
2022-10-23T01:14:50.811Z,100618.56
2022-10-23T01:17:25.727Z,100625.56
2022-10-23T01:20:10.104Z,100622.50
2022-10-23T01:22:55.332Z,100629.47
2022-10-23T01:25:36.885Z,100626.81
2022-10-23T01:28:12.167Z,100624.16
2022-10-23T01:30:44.636Z,100619.69
2022-10-23T01:33:16.294Z,100613.56
2022-10-23T01:35:51.609Z,100603.94
2022-10-23T01:38:25.093Z,100601.59
2022-10-23T01:41:02.206Z,100603.28
2022-10-23T01:43:38.048Z,100597.13
2022-10-23T01:46:11.496Z,100597.97
2022-10-23T01:48:42.070Z,100592.13
2022-10-23T01:51:11.924Z,100590.19
2022-10-23T01:53:43.348Z,100597.72
2022-10-23T01:56:16.450Z,100593.53
2022-10-23T01:58:49.131Z,100581.25
2022-10-23T02:01:21.450Z,100574.59
2022-10-23T02:03:54.023Z,100581.53
2022-10-23T02:06:22.016Z,100568.81
2022-10-23T02:08:50.363Z,100563.66
2022-10-23T02:11:20.871Z,100564.50
2022-10-23T02:13:57.743Z,100556.09
2022-10-23T02:16:35.516Z,100552.75
2022-10-23T02:19:12.074Z,100548.28
2022-10-23T02:21:49.159Z,100558.06
2022-10-23T02:24:21.426Z,100554.88
2022-10-23T02:26:54.867Z,100556.09
2022-10-23T02:29:29.155Z,100553.31
2022-10-23T02:31:59.635Z,100548.97
2022-10-23T02:34:27.374Z,100546.31
2022-10-23T02:36:55.547Z,100543.22
2022-10-23T02:39:27.596Z,100532.63
2022-10-23T02:42:02.361Z,100523.97
2022-10-23T02:44:44.020Z,100521.88
2022-10-23T02:47:22.251Z,100521.69
2022-10-23T02:49:57.898Z,100523.34
2022-10-23T02:52:33.860Z,100514.75
2022-10-23T02:55:11.129Z,100514.75
2022-10-23T02:57:53.926Z,100508.81
2022-10-23T03:00:24.927Z,100498.19
2022-10-23T03:02:58.559Z,100505.16
2022-10-23T03:05:33.818Z,100502.50
2022-10-23T03:08:04.327Z,100494.84
2022-10-23T03:10:32.086Z,100500.56
2022-10-23T03:12:59.824Z,100503.19
2022-10-23T03:15:32.378Z,100497.59
2022-10-23T03:18:00.163Z,100484.19
2022-10-23T03:20:28.068Z,100476.06
2022-10-23T03:22:56.152Z,100466.28
2022-10-23T03:25:23.898Z,100461.13
2022-10-23T03:27:52.039Z,100448.00
2022-10-23T03:30:20.319Z,100455.16
2022-10-23T03:32:53.917Z,100450.53
2022-10-23T03:35:21.811Z,100455.00
2022-10-23T03:37:49.554Z,100455.97
2022-10-23T03:40:17.708Z,100449.84
2022-10-23T03:42:45.724Z,100450.81
2022-10-23T03:45:17.889Z,100450.66
2022-10-23T03:47:45.749Z,100456.81
2022-10-23T03:50:16.482Z,100473.72
2022-10-23T03:52:44.675Z,100482.50
2022-10-23T03:55:14.030Z,100474.56
2022-10-23T03:57:41.871Z,100470.75
2022-10-23T04:00:11.552Z,100471.75
2022-10-23T04:02:45.449Z,100472.72
2022-10-23T04:05:13.602Z,100472.59
2022-10-23T04:07:51.381Z,100479.56
2022-10-23T04:10:19.238Z,100472.59
2022-10-23T04:12:47.032Z,100454.00
2022-10-23T04:15:14.751Z,100454.50
2022-10-23T04:17:46.108Z,100456.06
2022-10-23T04:20:14.140Z,100468.50
2022-10-23T04:22:42.217Z,100464.84
2022-10-23T04:25:12.763Z,100455.59
2022-10-23T04:27:40.623Z,100455.59
2022-10-23T04:30:10.058Z,100455.59
2022-10-23T04:32:39.098Z,100447.13
2022-10-23T04:35:08.511Z,100453.63
2022-10-23T04:37:36.222Z,100449.16
2022-10-23T04:40:04.109Z,100448.34
2022-10-23T04:42:37.083Z,100444.00
2022-10-23T04:45:05.227Z,100438.69
2022-10-23T04:47:33.519Z,100398.34
2022-10-23T04:50:01.380Z,100427.00
2022-10-23T04:52:47.589Z,100422.81
2022-10-23T04:55:33.843Z,100424.66
2022-10-23T04:58:12.297Z,100423.16
2022-10-23T05:00:40.134Z,100414.13
2022-10-23T05:03:08.147Z,100411.84
2022-10-23T05:05:40.211Z,100413.53
2022-10-23T05:08:36.908Z,100409.66
2022-10-23T05:11:34.467Z,100404.34
2022-10-23T05:14:08.039Z,100409.94
2022-10-23T05:16:40.946Z,100411.63
2022-10-23T05:19:11.070Z,100415.25
2022-10-23T05:21:41.435Z,100398.91
2022-10-23T05:24:11.863Z,100398.66
2022-10-23T05:26:39.905Z,100397.00
2022-10-23T05:29:10.344Z,100379.44
2022-10-23T05:31:39.482Z,100368.44
2022-10-23T05:34:14.123Z,100383.06
2022-10-23T05:36:45.612Z,100381.41
2022-10-23T05:39:15.518Z,100378.75
2022-10-23T05:41:43.446Z,100378.91
2022-10-23T05:44:16.082Z,100377.22
2022-10-23T05:47:11.601Z,100373.75
2022-10-23T05:50:01.559Z,100377.38
2022-10-23T05:52:49.731Z,100373.22
2022-10-23T05:55:36.027Z,100370.72
2022-10-23T05:58:23.987Z,100369.88
2022-10-23T06:01:09.227Z,100362.75
2022-10-23T06:04:09.932Z,100355.78
2022-10-23T06:07:07.002Z,100346.16
2022-10-23T06:09:34.814Z,100345.84
2022-10-23T06:12:06.826Z,100345.56
2022-10-23T06:14:35.691Z,100276.47
2022-10-23T06:17:08.066Z,100338.28
2022-10-23T06:19:41.590Z,100312.47
2022-10-23T06:22:09.726Z,100345.09
2022-10-23T06:24:48.591Z,100335.78
2022-10-23T06:27:22.063Z,100342.44
2022-10-23T06:29:49.879Z,100329.88
2022-10-23T06:32:19.505Z,100324.03
2022-10-23T06:35:00.931Z,100334.97
2022-10-23T06:37:29.696Z,100329.53
2022-10-23T06:40:11.421Z,100333.69
2022-10-23T06:42:52.701Z,100335.34
2022-10-23T06:45:52.634Z,100331.72
2022-10-23T06:48:42.743Z,100330.44
2022-10-23T06:51:18.688Z,100331.09
2022-10-23T06:53:47.246Z,100319.31
2022-10-23T06:56:36.635Z,100319.88
2022-10-23T06:59:08.589Z,100319.00
2022-10-23T07:01:37.481Z,100322.91
2022-10-23T07:04:10.681Z,100297.75
2022-10-23T07:06:38.709Z,100327.59
2022-10-23T07:09:08.067Z,100312.44
2022-10-23T07:11:58.463Z,100325.59
2022-10-23T07:14:35.570Z,100317.31
2022-10-23T07:17:04.678Z,100314.50
2022-10-23T07:19:34.992Z,100325.81
2022-10-23T07:22:10.758Z,100306.53
2022-10-23T07:25:03.997Z,100316.53
2022-10-23T07:27:39.275Z,100320.03
2022-10-23T07:30:10.478Z,100316.19
2022-10-23T07:32:58.243Z,100320.38
2022-10-23T07:35:47.462Z,100311.41
2022-10-23T07:38:22.175Z,100291.97
2022-10-23T07:40:54.893Z,100262.53
2022-10-23T07:43:22.660Z,100308.81
2022-10-23T07:45:52.617Z,100306.63
2022-10-23T07:48:27.484Z,100297.53
2022-10-23T07:51:10.764Z,100300.03
2022-10-23T07:53:58.876Z,100296.91
2022-10-23T07:56:52.839Z,100293.09
2022-10-23T07:59:23.127Z,100290.44
2022-10-23T08:01:56.618Z,100296.25
2022-10-23T08:04:30.086Z,100295.59
2022-10-23T08:07:08.160Z,100275.16
2022-10-23T08:09:42.189Z,100293.63
2022-10-23T08:12:10.377Z,100298.63
2022-10-23T08:14:38.215Z,100299.13
2022-10-23T08:17:09.622Z,100294.28
2022-10-23T08:20:03.005Z,100287.66
2022-10-23T08:22:39.011Z,100280.69
2022-10-23T08:25:07.393Z,100293.81
2022-10-23T08:27:35.176Z,100301.97
2022-10-23T08:30:03.107Z,100315.28
2022-10-23T08:32:41.415Z,100301.63
2022-10-23T08:35:10.803Z,100311.31
2022-10-23T08:37:40.428Z,100313.31
2022-10-23T08:40:18.273Z,100305.72
2022-10-23T08:43:17.885Z,100308.53
2022-10-23T08:46:06.127Z,100301.06
2022-10-23T08:49:18.779Z,100299.91
2022-10-23T08:52:01.264Z,100298.06
2022-10-23T08:54:40.789Z,100293.06
2022-10-23T08:57:33.569Z,100280.44
2022-10-23T09:00:05.957Z,100282.25
2022-10-23T09:02:44.287Z,100279.13
2022-10-23T09:05:17.130Z,100274.78
2022-10-23T09:08:06.362Z,100271.47
2022-10-23T09:10:54.392Z,100222.63
2022-10-23T09:13:41.309Z,100238.38
2022-10-23T09:16:20.563Z,100242.84
2022-10-23T09:18:51.084Z,100250.47
2022-10-23T09:21:18.822Z,100257.09
2022-10-23T09:23:46.536Z,100243.72
2022-10-23T09:26:17.434Z,100249.72
2022-10-23T09:28:50.535Z,100255.97
2022-10-23T09:31:22.287Z,100249.66
2022-10-23T09:33:58.052Z,100247.28
2022-10-23T09:36:29.984Z,100250.13
2022-10-23T09:38:59.836Z,100239.13
2022-10-23T09:41:32.582Z,100260.03
2022-10-23T09:44:05.215Z,100254.13
2022-10-23T09:46:40.927Z,100247.75
2022-10-23T09:49:18.023Z,100245.88
2022-10-23T09:52:00.319Z,100210.16
2022-10-23T09:54:29.335Z,100236.38
2022-10-23T09:57:04.350Z,100179.84
2022-10-23T09:59:33.627Z,100226.75
2022-10-23T10:02:04.547Z,100226.28
2022-10-23T10:04:52.703Z,100231.81
2022-10-23T10:07:22.323Z,100235.31
2022-10-23T10:09:51.097Z,100234.09
2022-10-23T10:12:45.757Z,100224.66
2022-10-23T10:15:23.638Z,100210.28
2022-10-23T10:18:09.515Z,100207.63
2022-10-23T10:21:01.687Z,100200.44
2022-10-23T10:23:36.156Z,100191.28
2022-10-23T10:26:16.427Z,100189.44
2022-10-23T10:28:55.615Z,100193.59
2022-10-23T10:31:32.090Z,100193.59
2022-10-23T10:34:11.431Z,100181.91
2022-10-23T10:36:48.099Z,100182.56
2022-10-23T10:39:31.821Z,100184.06
2022-10-23T10:42:12.007Z,100172.91
2022-10-23T10:44:52.687Z,100174.75
2022-10-23T10:47:25.527Z,100165.25
2022-10-23T10:50:03.892Z,100156.25
2022-10-23T10:53:00.391Z,100149.09
2022-10-23T10:55:36.376Z,100152.94
2022-10-23T10:58:07.223Z,100139.44
2022-10-23T11:00:36.402Z,100135.94
2022-10-23T11:03:22.367Z,100124.97
2022-10-23T11:05:52.451Z,100106.53
2022-10-23T11:08:27.901Z,100119.28
2022-10-23T11:11:01.440Z,100122.59
2022-10-23T11:13:34.940Z,100137.41
2022-10-23T11:16:12.387Z,100148.91
2022-10-23T11:18:44.522Z,100151.94
2022-10-23T11:21:32.658Z,100151.00
2022-10-23T11:24:26.819Z,100156.03
2022-10-23T11:27:10.645Z,100165.41
2022-10-23T11:30:13.556Z,100107.09
2022-10-23T11:33:05.939Z,100111.72
2022-10-23T11:35:54.279Z,100101.59
2022-10-23T11:38:27.563Z,100093.97
2022-10-23T11:40:58.504Z,100076.69
2022-10-23T11:43:31.734Z,100077.88
2022-10-23T11:45:59.691Z,100079.91
2022-10-23T11:48:39.976Z,100075.94
2022-10-23T11:51:22.991Z,100069.78
2022-10-23T11:54:53.541Z,100064.97
2022-10-23T11:57:22.127Z,100056.72
2022-10-23T11:59:55.539Z,100084.47
2022-10-23T12:02:31.787Z,100080.94
2022-10-23T12:05:05.282Z,100067.59
2022-10-23T12:07:35.547Z,100065.19
2022-10-23T12:10:05.732Z,100048.16
2022-10-23T12:12:35.212Z,100059.13
2022-10-23T12:15:23.252Z,100051.75
2022-10-23T12:17:54.133Z,100046.69
2022-10-23T12:20:41.632Z,100047.31
2022-10-23T12:23:25.017Z,100041.97
2022-10-23T12:26:12.654Z,100036.81
2022-10-23T12:28:49.771Z,100039.88
2022-10-23T12:31:33.346Z,100040.31
2022-10-23T12:34:12.297Z,100040.97
2022-10-23T12:37:03.574Z,100031.56
2022-10-23T12:39:32.792Z,100031.56
2022-10-23T12:42:01.537Z,100022.56
2022-10-23T12:44:30.364Z,100029.56
2022-10-23T12:47:00.506Z,100016.03
2022-10-23T12:49:31.458Z,100028.72
2022-10-23T12:52:03.212Z,100019.25
2022-10-23T12:54:33.619Z,100022.56
2022-10-23T12:57:01.347Z,100032.22
2022-10-23T12:59:37.285Z,100012.72
2022-10-23T13:02:15.228Z,100004.91
2022-10-23T13:04:43.140Z,99997.91
2022-10-23T13:07:12.875Z,99997.91
2022-10-23T13:09:43.866Z,99982.91
2022-10-23T13:12:27.221Z,99981.88
2022-10-23T13:15:03.099Z,99974.91
2022-10-23T13:17:39.754Z,99981.81
2022-10-23T13:20:26.386Z,99988.19
2022-10-23T13:23:01.244Z,99966.00
2022-10-23T13:25:31.660Z,99963.34
2022-10-23T13:28:28.207Z,99955.06
2022-10-23T13:31:27.702Z,99957.53
2022-10-23T13:34:23.404Z,99943.00
2022-10-23T13:36:58.603Z,99937.41
2022-10-23T13:39:30.882Z,99933.97
2022-10-23T13:42:02.779Z,99935.00
2022-10-23T13:44:30.461Z,99929.66
2022-10-23T13:46:58.152Z,99930.03
2022-10-23T13:49:25.919Z,99935.38
2022-10-23T13:51:55.522Z,99915.22
2022-10-23T13:54:25.570Z,99908.78
2022-10-23T13:56:55.752Z,99919.91
2022-10-23T13:59:24.366Z,99916.06
2022-10-23T14:01:52.872Z,99907.78
2022-10-23T14:04:21.218Z,99913.56
2022-10-23T14:06:49.294Z,99911.09
2022-10-23T14:09:18.897Z,99900.59
2022-10-23T14:11:46.769Z,99902.91
2022-10-23T14:14:15.893Z,99900.03
2022-10-23T14:16:43.608Z,99885.69
2022-10-23T14:19:12.051Z,99893.06
2022-10-23T14:21:39.780Z,99884.41
2022-10-23T14:24:07.956Z,99887.53
2022-10-23T14:26:35.737Z,99876.59
2022-10-23T14:29:07.638Z,99879.06
2022-10-23T14:31:40.519Z,99880.28
2022-10-23T14:34:08.187Z,99870.25
2022-10-23T14:36:49.396Z,99863.06
2022-10-23T14:39:18.342Z,99865.72
2022-10-23T14:41:46.145Z,99868.41
2022-10-23T14:44:14.135Z,99868.59
2022-10-23T14:46:43.238Z,99871.84
2022-10-23T14:49:10.929Z,99867.91
2022-10-23T14:51:38.654Z,99867.91
2022-10-23T14:54:07.597Z,99866.56
2022-10-23T14:56:38.020Z,99866.75
2022-10-23T14:59:06.523Z,99856.28
2022-10-23T15:01:36.927Z,99848.69
2022-10-23T15:04:06.463Z,99846.03
2022-10-23T15:06:34.970Z,99845.19
2022-10-23T15:09:04.301Z,99841.06
2022-10-23T15:11:32.968Z,99840.59
2022-10-23T15:14:01.342Z,99833.78
2022-10-23T15:16:29.404Z,99838.31
2022-10-23T15:18:57.168Z,99840.78
2022-10-23T15:21:26.269Z,99847.13
2022-10-23T15:23:54.795Z,99876.66
2022-10-23T15:26:23.865Z,99884.84
2022-10-23T15:28:54.776Z,99886.66
2022-10-23T15:31:41.824Z,99889.16
2022-10-23T15:34:11.608Z,99906.81
2022-10-23T15:36:40.836Z,99903.50
2022-10-23T15:39:10.375Z,99891.19
2022-10-23T15:41:40.224Z,99882.56
2022-10-23T15:44:09.755Z,99876.22
2022-10-23T15:46:37.528Z,99866.75
2022-10-23T15:49:05.944Z,99864.09
2022-10-23T15:51:33.663Z,99869.41
2022-10-23T15:54:02.788Z,99860.13
2022-10-23T15:56:30.674Z,99868.50
2022-10-23T15:58:59.039Z,99869.06
2022-10-23T16:01:26.932Z,99863.28
2022-10-23T16:03:55.024Z,99861.63
2022-10-23T16:06:22.978Z,99859.16
2022-10-23T16:08:50.821Z,99874.69
2022-10-23T16:11:22.411Z,99874.22
2022-10-23T16:13:50.370Z,99878.72
2022-10-23T16:16:19.023Z,99876.25
2022-10-23T16:18:47.186Z,99867.81
2022-10-23T16:21:19.343Z,99870.66
2022-10-23T16:23:47.429Z,99856.50
2022-10-23T16:26:16.142Z,99859.34
2022-10-23T16:28:47.225Z,99863.03
2022-10-23T16:31:19.962Z,99867.06
2022-10-23T16:33:48.833Z,99886.09
2022-10-23T16:36:17.352Z,99892.47
2022-10-23T16:39:09.082Z,99907.63
2022-10-23T16:41:55.216Z,99917.81
2022-10-23T16:44:28.353Z,99946.28
2022-10-23T16:47:01.358Z,99960.25
2022-10-23T16:49:29.765Z,99968.25
2022-10-23T16:51:57.507Z,99983.59
2022-10-23T16:54:25.260Z,99971.09
2022-10-23T16:56:55.816Z,99965.28
2022-10-23T16:59:23.555Z,99948.13
2022-10-23T17:01:53.255Z,99854.22
2022-10-23T17:04:21.135Z,99826.94
2022-10-23T17:06:48.824Z,99837.22
2022-10-23T17:09:19.219Z,99854.22
2022-10-23T17:11:47.955Z,99833.38
2022-10-23T17:14:18.393Z,99829.53
2022-10-23T17:16:48.868Z,99804.09
2022-10-23T17:19:43.383Z,99819.06
2022-10-23T17:22:10.627Z,99822.56
2022-10-23T17:24:39.056Z,99833.38
2022-10-23T17:27:07.277Z,99840.72
2022-10-23T17:29:35.624Z,99840.72
2022-10-23T17:32:03.430Z,99847.91
2022-10-23T17:34:32.481Z,99842.75
2022-10-23T17:37:00.261Z,99859.75
2022-10-23T17:39:30.180Z,99847.44
2022-10-23T17:41:58.115Z,99863.41
2022-10-23T17:44:26.114Z,99864.78
2022-10-23T17:46:54.720Z,99875.72
2022-10-23T17:49:23.093Z,99854.06
2022-10-23T17:51:54.464Z,99840.09
2022-10-23T17:54:24.332Z,99867.38
2022-10-23T17:56:52.047Z,99836.97
2022-10-23T17:59:19.966Z,99839.25
2022-10-23T18:01:48.990Z,99842.75
2022-10-23T18:04:18.383Z,99831.44
2022-10-23T18:06:48.108Z,99828.13
2022-10-23T18:09:17.416Z,99830.44
2022-10-23T18:11:48.213Z,99826.13
2022-10-23T18:14:17.058Z,99827.13
2022-10-23T18:16:45.561Z,99815.47
2022-10-23T18:19:13.707Z,99819.97
2022-10-23T18:21:41.523Z,99812.16
2022-10-23T18:24:09.384Z,99810.69
2022-10-23T18:26:39.168Z,99798.19
2022-10-23T18:29:08.575Z,99800.84
2022-10-23T18:31:37.768Z,99793.25
2022-10-23T18:34:08.414Z,99790.78
2022-10-23T18:36:38.834Z,99798.09
2022-10-23T18:39:07.958Z,99801.59
2022-10-23T18:41:39.511Z,99801.75
2022-10-23T18:44:07.952Z,99816.28
2022-10-23T18:46:36.022Z,99799.66
2022-10-23T18:49:04.483Z,99795.97
2022-10-23T18:51:34.893Z,99803.97
2022-10-23T18:54:03.484Z,99802.66
2022-10-23T18:56:31.488Z,99798.34
2022-10-23T18:59:02.709Z,99806.16
2022-10-23T19:01:32.321Z,99798.34
2022-10-23T19:04:01.441Z,99804.31
2022-10-23T19:06:30.112Z,99810.00
2022-10-23T19:08:58.079Z,99803.69
2022-10-23T19:11:27.707Z,99798.75
2022-10-23T19:13:55.611Z,99809.00
2022-10-23T19:16:28.568Z,99797.34
2022-10-23T19:19:01.231Z,99801.66
2022-10-23T19:21:32.524Z,99797.91
2022-10-23T19:24:02.816Z,99792.59
2022-10-23T19:26:31.888Z,99790.75
2022-10-23T19:29:00.069Z,99790.09
2022-10-23T19:31:30.656Z,99785.16
2022-10-23T19:33:58.335Z,99778.88
2022-10-23T19:36:26.043Z,99770.28
2022-10-23T19:38:53.743Z,99788.53
2022-10-23T19:41:21.498Z,99794.03
2022-10-23T19:43:49.206Z,99798.91
2022-10-23T19:46:17.068Z,99790.47
2022-10-23T19:48:46.779Z,99799.28
2022-10-23T19:51:14.738Z,99803.75
2022-10-23T19:53:43.143Z,99808.56
2022-10-23T19:56:12.928Z,99813.88
2022-10-23T19:58:41.400Z,99809.75
2022-10-23T20:01:15.278Z,99788.97
2022-10-23T20:03:48.687Z,99800.94
2022-10-23T20:06:20.373Z,99813.59
2022-10-23T20:08:48.948Z,99814.94
2022-10-23T20:11:20.356Z,99818.44
2022-10-23T20:13:49.195Z,99809.38
2022-10-23T20:16:18.599Z,99811.28
2022-10-23T20:18:47.771Z,99820.28
2022-10-23T20:21:16.222Z,99840.19
2022-10-23T20:23:44.706Z,99840.84
2022-10-23T20:26:16.561Z,99846.19
2022-10-23T20:28:46.881Z,99851.50
2022-10-23T20:31:16.001Z,99845.53
2022-10-23T20:33:44.626Z,99862.16
2022-10-23T20:36:23.983Z,99880.41
2022-10-23T20:38:51.726Z,99882.44
2022-10-23T20:41:19.710Z,99894.72
2022-10-23T20:43:47.943Z,99896.75
2022-10-23T20:46:15.694Z,99903.00
2022-10-23T20:48:44.931Z,99911.97
2022-10-23T20:51:15.557Z,99905.47
2022-10-23T20:53:45.551Z,99913.63
2022-10-23T20:56:16.560Z,99898.97
2022-10-23T20:58:44.306Z,99904.47
2022-10-23T21:01:16.257Z,99907.97
2022-10-23T21:03:44.522Z,99900.81
2022-10-23T21:06:14.589Z,99902.63
2022-10-23T21:08:43.791Z,99888.31
2022-10-23T21:11:14.254Z,99896.94
2022-10-23T21:13:42.791Z,99903.94
2022-10-23T21:16:14.761Z,99897.78
2022-10-23T21:18:46.888Z,99894.94
2022-10-23T21:21:16.982Z,99907.91
2022-10-23T21:23:46.844Z,99896.41
2022-10-23T21:26:15.106Z,99905.06
2022-10-23T21:28:55.818Z,99909.56
2022-10-23T21:31:34.847Z,99902.47
2022-10-23T21:34:02.837Z,99905.94
2022-10-23T21:36:34.012Z,99910.91
2022-10-23T21:39:04.130Z,99910.91
2022-10-23T21:41:33.536Z,99913.56
2022-10-23T21:44:03.641Z,99912.94
2022-10-23T21:46:33.001Z,99921.09
2022-10-23T21:49:01.767Z,99928.91
2022-10-23T21:51:31.892Z,99921.63
2022-10-23T21:53:59.938Z,99922.63
2022-10-23T21:56:32.183Z,99923.00
2022-10-23T21:59:01.335Z,99921.34
2022-10-23T22:01:29.938Z,99920.53
2022-10-23T22:03:57.857Z,99919.69
2022-10-23T22:06:28.033Z,99918.50
2022-10-23T22:08:57.904Z,99923.00
2022-10-23T22:11:27.179Z,99912.19
2022-10-23T22:13:57.160Z,99919.34
2022-10-23T22:16:25.001Z,99918.03
2022-10-23T22:18:53.207Z,99927.03
2022-10-23T22:21:23.335Z,99924.66
2022-10-23T22:23:51.410Z,99912.72
2022-10-23T22:26:23.267Z,99918.97
2022-10-23T22:28:52.260Z,99919.34
2022-10-23T22:31:23.205Z,99920.78
2022-10-23T22:33:51.708Z,99922.63
2022-10-23T22:36:19.923Z,99916.47
2022-10-23T22:38:48.086Z,99918.13
2022-10-23T22:41:16.157Z,99902.16
2022-10-23T22:43:44.081Z,99887.63
2022-10-23T22:46:13.463Z,99899.06
2022-10-23T22:48:43.008Z,99917.50
2022-10-23T22:51:15.784Z,99899.75
2022-10-23T22:53:44.444Z,99912.53
2022-10-23T22:56:14.372Z,99912.38
2022-10-23T22:58:42.163Z,99917.22
2022-10-23T23:01:13.488Z,99909.22
2022-10-23T23:03:43.091Z,99912.06
2022-10-23T23:06:11.856Z,99917.22
2022-10-23T23:08:40.943Z,99898.81
2022-10-23T23:11:09.361Z,99919.56
2022-10-23T23:13:37.099Z,99927.84
2022-10-23T23:16:05.163Z,99929.50
2022-10-23T23:18:33.573Z,99930.34
2022-10-23T23:21:03.124Z,99937.31
2022-10-23T23:23:31.615Z,99933.66
2022-10-23T23:25:59.352Z,99941.25
2022-10-23T23:28:27.121Z,99940.91
2022-10-23T23:31:04.026Z,99929.25
2022-10-23T23:33:31.784Z,99921.25
2022-10-23T23:35:59.554Z,99919.91
2022-10-23T23:38:28.695Z,99923.56
2022-10-23T23:40:56.478Z,99912.94
2022-10-23T23:43:24.274Z,99910.78
2022-10-23T23:45:52.007Z,99918.13
2022-10-23T23:48:19.748Z,99907.03
2022-10-23T23:50:47.515Z,99909.97
2022-10-23T23:53:15.377Z,99896.38
2022-10-23T23:58:12.774Z,99901.34
